sensor_id;sensor_type;location;lat;lon;timestamp;P1;durP1;ratioP1;P2;durP2;ratioP2
12871;SDS011;6504;53.766;9.626;2023-03-21T00:01:03;24.30;;;21.90;;
12871;SDS011;6504;53.766;9.626;2023-03-21T00:03:34;24.03;;;21.53;;
12871;SDS011;6504;53.766;9.626;2023-03-21T00:06:04;25.10;;;22.60;;
12871;SDS011;6504;53.766;9.626;2023-03-21T00:08:33;24.87;;;22.43;;
12871;SDS011;6504;53.766;9.626;2023-03-21T00:11:02;25.90;;;23.50;;
12871;SDS011;6504;53.766;9.626;2023-03-21T00:13:31;25.23;;;22.73;;
12871;SDS011;6504;53.766;9.626;2023-03-21T00:16:04;25.43;;;22.70;;
12871;SDS011;6504;53.766;9.626;2023-03-21T00:18:49;23.93;;;21.43;;
12871;SDS011;6504;53.766;9.626;2023-03-21T00:21:20;24.97;;;22.50;;
12871;SDS011;6504;53.766;9.626;2023-03-21T00:24:13;24.93;;;22.37;;
12871;SDS011;6504;53.766;9.626;2023-03-21T00:26:41;25.33;;;22.83;;
12871;SDS011;6504;53.766;9.626;2023-03-21T00:29:10;24.93;;;22.43;;
12871;SDS011;6504;53.766;9.626;2023-03-21T00:31:38;25.37;;;22.77;;
12871;SDS011;6504;53.766;9.626;2023-03-21T00:34:07;25.37;;;22.67;;
12871;SDS011;6504;53.766;9.626;2023-03-21T00:36:35;23.93;;;21.57;;
12871;SDS011;6504;53.766;9.626;2023-03-21T00:39:03;25.67;;;22.93;;
12871;SDS011;6504;53.766;9.626;2023-03-21T00:41:32;25.40;;;22.73;;
12871;SDS011;6504;53.766;9.626;2023-03-21T00:44:08;26.23;;;23.63;;
12871;SDS011;6504;53.766;9.626;2023-03-21T00:46:39;25.13;;;22.07;;
12871;SDS011;6504;53.766;9.626;2023-03-21T00:49:23;25.57;;;23.00;;
12871;SDS011;6504;53.766;9.626;2023-03-21T00:51:52;24.97;;;22.47;;
12871;SDS011;6504;53.766;9.626;2023-03-21T00:54:30;24.07;;;21.67;;
12871;SDS011;6504;53.766;9.626;2023-03-21T00:56:58;26.07;;;23.27;;
12871;SDS011;6504;53.766;9.626;2023-03-21T00:59:28;25.73;;;23.03;;
12871;SDS011;6504;53.766;9.626;2023-03-21T01:01:56;24.97;;;22.37;;
12871;SDS011;6504;53.766;9.626;2023-03-21T01:04:27;26.03;;;23.33;;
12871;SDS011;6504;53.766;9.626;2023-03-21T01:06:55;26.77;;;23.33;;
12871;SDS011;6504;53.766;9.626;2023-03-21T01:09:23;26.17;;;23.43;;
12871;SDS011;6504;53.766;9.626;2023-03-21T01:11:51;25.93;;;23.33;;
12871;SDS011;6504;53.766;9.626;2023-03-21T01:14:21;26.40;;;23.70;;
12871;SDS011;6504;53.766;9.626;2023-03-21T01:16:50;26.30;;;23.57;;
12871;SDS011;6504;53.766;9.626;2023-03-21T01:19:19;27.03;;;24.23;;
12871;SDS011;6504;53.766;9.626;2023-03-21T01:21:59;26.63;;;23.73;;
12871;SDS011;6504;53.766;9.626;2023-03-21T01:24:27;25.73;;;23.03;;
12871;SDS011;6504;53.766;9.626;2023-03-21T01:26:57;26.37;;;23.57;;
12871;SDS011;6504;53.766;9.626;2023-03-21T01:29:25;27.57;;;24.63;;
12871;SDS011;6504;53.766;9.626;2023-03-21T01:31:53;29.57;;;26.43;;
12871;SDS011;6504;53.766;9.626;2023-03-21T01:34:22;28.53;;;25.43;;
12871;SDS011;6504;53.766;9.626;2023-03-21T01:36:50;28.47;;;25.40;;
12871;SDS011;6504;53.766;9.626;2023-03-21T01:39:19;28.83;;;25.73;;
12871;SDS011;6504;53.766;9.626;2023-03-21T01:41:47;29.40;;;26.20;;
12871;SDS011;6504;53.766;9.626;2023-03-21T01:44:16;27.47;;;24.57;;
12871;SDS011;6504;53.766;9.626;2023-03-21T01:46:45;28.00;;;25.20;;
12871;SDS011;6504;53.766;9.626;2023-03-21T01:49:36;29.30;;;25.53;;
12871;SDS011;6504;53.766;9.626;2023-03-21T01:52:08;27.73;;;24.77;;
12871;SDS011;6504;53.766;9.626;2023-03-21T01:55:00;27.73;;;24.73;;
12871;SDS011;6504;53.766;9.626;2023-03-21T01:57:33;28.17;;;25.10;;
12871;SDS011;6504;53.766;9.626;2023-03-21T02:00:20;28.70;;;25.43;;
12871;SDS011;6504;53.766;9.626;2023-03-21T02:02:54;27.50;;;24.47;;
12871;SDS011;6504;53.766;9.626;2023-03-21T02:05:39;29.27;;;26.07;;
12871;SDS011;6504;53.766;9.626;2023-03-21T02:08:15;28.50;;;25.37;;
12871;SDS011;6504;53.766;9.626;2023-03-21T02:10:45;27.00;;;24.03;;
12871;SDS011;6504;53.766;9.626;2023-03-21T02:13:15;30.17;;;26.97;;
12871;SDS011;6504;53.766;9.626;2023-03-21T02:15:45;28.17;;;25.17;;
12871;SDS011;6504;53.766;9.626;2023-03-21T02:18:21;29.40;;;26.20;;
12871;SDS011;6504;53.766;9.626;2023-03-21T02:20:59;29.23;;;26.10;;
12871;SDS011;6504;53.766;9.626;2023-03-21T02:23:43;29.10;;;26.00;;
12871;SDS011;6504;53.766;9.626;2023-03-21T02:26:45;28.70;;;25.57;;
12871;SDS011;6504;53.766;9.626;2023-03-21T02:29:40;28.07;;;25.07;;
12871;SDS011;6504;53.766;9.626;2023-03-21T02:33:28;27.37;;;24.37;;
12871;SDS011;6504;53.766;9.626;2023-03-21T02:36:22;28.97;;;25.90;;
12871;SDS011;6504;53.766;9.626;2023-03-21T02:38:56;30.17;;;25.90;;
12871;SDS011;6504;53.766;9.626;2023-03-21T02:41:35;30.37;;;27.00;;
12871;SDS011;6504;53.766;9.626;2023-03-21T02:44:14;30.60;;;27.37;;
12871;SDS011;6504;53.766;9.626;2023-03-21T02:46:48;31.70;;;27.97;;
12871;SDS011;6504;53.766;9.626;2023-03-21T02:49:32;30.03;;;26.67;;
12871;SDS011;6504;53.766;9.626;2023-03-21T02:52:08;31.93;;;27.87;;
12871;SDS011;6504;53.766;9.626;2023-03-21T02:54:58;30.67;;;27.43;;
12871;SDS011;6504;53.766;9.626;2023-03-21T02:57:30;31.73;;;28.23;;
12871;SDS011;6504;53.766;9.626;2023-03-21T03:00:09;32.17;;;27.77;;
12871;SDS011;6504;53.766;9.626;2023-03-21T03:02:42;31.87;;;28.37;;
12871;SDS011;6504;53.766;9.626;2023-03-21T03:05:12;31.37;;;27.97;;
12871;SDS011;6504;53.766;9.626;2023-03-21T03:07:54;33.07;;;29.13;;
12871;SDS011;6504;53.766;9.626;2023-03-21T03:10:45;33.07;;;29.33;;
12871;SDS011;6504;53.766;9.626;2023-03-21T03:13:26;32.77;;;29.13;;
12871;SDS011;6504;53.766;9.626;2023-03-21T03:16:03;31.70;;;28.23;;
12871;SDS011;6504;53.766;9.626;2023-03-21T03:18:40;33.47;;;29.27;;
12871;SDS011;6504;53.766;9.626;2023-03-21T03:21:16;33.13;;;29.57;;
12871;SDS011;6504;53.766;9.626;2023-03-21T03:23:49;33.80;;;29.60;;
12871;SDS011;6504;53.766;9.626;2023-03-21T03:26:24;34.40;;;29.23;;
12871;SDS011;6504;53.766;9.626;2023-03-21T03:28:58;33.83;;;30.13;;
12871;SDS011;6504;53.766;9.626;2023-03-21T03:31:31;34.80;;;29.87;;
12871;SDS011;6504;53.766;9.626;2023-03-21T03:34:04;34.60;;;30.90;;
12871;SDS011;6504;53.766;9.626;2023-03-21T03:36:35;34.50;;;29.90;;
12871;SDS011;6504;53.766;9.626;2023-03-21T03:39:07;35.07;;;31.17;;
12871;SDS011;6504;53.766;9.626;2023-03-21T03:41:41;33.60;;;29.53;;
12871;SDS011;6504;53.766;9.626;2023-03-21T03:44:32;34.20;;;30.53;;
12871;SDS011;6504;53.766;9.626;2023-03-21T03:47:01;35.20;;;31.40;;
12871;SDS011;6504;53.766;9.626;2023-03-21T03:49:34;33.43;;;29.80;;
12871;SDS011;6504;53.766;9.626;2023-03-21T03:52:06;34.57;;;30.87;;
12871;SDS011;6504;53.766;9.626;2023-03-21T03:54:38;37.97;;;32.40;;
12871;SDS011;6504;53.766;9.626;2023-03-21T03:57:11;36.93;;;32.37;;
12871;SDS011;6504;53.766;9.626;2023-03-21T03:59:43;36.20;;;31.27;;
12871;SDS011;6504;53.766;9.626;2023-03-21T04:02:11;36.23;;;31.17;;
12871;SDS011;6504;53.766;9.626;2023-03-21T04:04:40;37.47;;;31.33;;
12871;SDS011;6504;53.766;9.626;2023-03-21T04:07:08;35.73;;;30.50;;
12871;SDS011;6504;53.766;9.626;2023-03-21T04:09:36;35.67;;;31.67;;
12871;SDS011;6504;53.766;9.626;2023-03-21T04:12:11;37.80;;;31.33;;
12871;SDS011;6504;53.766;9.626;2023-03-21T04:14:40;38.10;;;31.57;;
12871;SDS011;6504;53.766;9.626;2023-03-21T04:17:12;36.33;;;30.70;;
12871;SDS011;6504;53.766;9.626;2023-03-21T04:19:41;39.83;;;33.40;;
12871;SDS011;6504;53.766;9.626;2023-03-21T04:22:11;40.00;;;33.50;;
12871;SDS011;6504;53.766;9.626;2023-03-21T04:24:39;40.80;;;32.97;;
12871;SDS011;6504;53.766;9.626;2023-03-21T04:27:07;38.83;;;32.73;;
12871;SDS011;6504;53.766;9.626;2023-03-21T04:29:37;39.73;;;33.73;;
12871;SDS011;6504;53.766;9.626;2023-03-21T04:32:05;37.87;;;31.67;;
12871;SDS011;6504;53.766;9.626;2023-03-21T04:34:43;39.40;;;32.37;;
12871;SDS011;6504;53.766;9.626;2023-03-21T04:37:15;41.83;;;33.17;;
12871;SDS011;6504;53.766;9.626;2023-03-21T04:39:44;40.33;;;32.57;;
12871;SDS011;6504;53.766;9.626;2023-03-21T04:42:12;40.40;;;31.87;;
12871;SDS011;6504;53.766;9.626;2023-03-21T04:44:42;38.03;;;32.20;;
12871;SDS011;6504;53.766;9.626;2023-03-21T04:47:10;37.60;;;32.00;;
12871;SDS011;6504;53.766;9.626;2023-03-21T04:49:41;40.27;;;33.63;;
12871;SDS011;6504;53.766;9.626;2023-03-21T04:52:09;42.00;;;34.10;;
12871;SDS011;6504;53.766;9.626;2023-03-21T04:54:37;40.47;;;33.97;;
12871;SDS011;6504;53.766;9.626;2023-03-21T04:57:05;41.10;;;32.40;;
12871;SDS011;6504;53.766;9.626;2023-03-21T04:59:33;40.27;;;32.67;;
12871;SDS011;6504;53.766;9.626;2023-03-21T05:02:03;38.03;;;32.73;;
12871;SDS011;6504;53.766;9.626;2023-03-21T05:04:31;40.97;;;33.20;;
12871;SDS011;6504;53.766;9.626;2023-03-21T05:06:59;38.57;;;32.30;;
12871;SDS011;6504;53.766;9.626;2023-03-21T05:09:27;39.97;;;33.87;;
12871;SDS011;6504;53.766;9.626;2023-03-21T05:11:55;39.93;;;33.67;;
12871;SDS011;6504;53.766;9.626;2023-03-21T05:14:23;39.03;;;32.57;;
12871;SDS011;6504;53.766;9.626;2023-03-21T05:16:52;36.60;;;30.87;;
12871;SDS011;6504;53.766;9.626;2023-03-21T05:19:24;40.67;;;33.40;;
12871;SDS011;6504;53.766;9.626;2023-03-21T05:22:00;41.33;;;32.23;;
12871;SDS011;6504;53.766;9.626;2023-03-21T05:24:30;38.43;;;32.50;;
12871;SDS011;6504;53.766;9.626;2023-03-21T05:26:59;37.03;;;31.80;;
12871;SDS011;6504;53.766;9.626;2023-03-21T05:29:28;39.37;;;32.80;;
12871;SDS011;6504;53.766;9.626;2023-03-21T05:31:56;37.23;;;32.33;;
12871;SDS011;6504;53.766;9.626;2023-03-21T05:34:26;37.07;;;32.37;;
12871;SDS011;6504;53.766;9.626;2023-03-21T05:36:56;37.37;;;33.30;;
12871;SDS011;6504;53.766;9.626;2023-03-21T05:39:24;37.80;;;33.37;;
12871;SDS011;6504;53.766;9.626;2023-03-21T05:41:52;37.20;;;33.20;;
12871;SDS011;6504;53.766;9.626;2023-03-21T05:44:20;36.37;;;31.03;;
12871;SDS011;6504;53.766;9.626;2023-03-21T05:46:48;34.10;;;30.13;;
12871;SDS011;6504;53.766;9.626;2023-03-21T05:49:16;36.77;;;31.07;;
12871;SDS011;6504;53.766;9.626;2023-03-21T05:51:46;37.57;;;31.97;;
12871;SDS011;6504;53.766;9.626;2023-03-21T05:54:14;34.33;;;30.53;;
12871;SDS011;6504;53.766;9.626;2023-03-21T05:56:42;36.73;;;31.73;;
12871;SDS011;6504;53.766;9.626;2023-03-21T05:59:10;34.63;;;29.87;;
12871;SDS011;6504;53.766;9.626;2023-03-21T06:01:38;35.73;;;29.57;;
12871;SDS011;6504;53.766;9.626;2023-03-21T06:04:06;32.63;;;28.87;;
12871;SDS011;6504;53.766;9.626;2023-03-21T06:06:35;33.80;;;30.10;;
12871;SDS011;6504;53.766;9.626;2023-03-21T06:09:04;32.13;;;28.73;;
12871;SDS011;6504;53.766;9.626;2023-03-21T06:11:33;33.47;;;29.97;;
12871;SDS011;6504;53.766;9.626;2023-03-21T06:14:02;33.20;;;28.97;;
12871;SDS011;6504;53.766;9.626;2023-03-21T06:16:30;33.87;;;29.93;;
12871;SDS011;6504;53.766;9.626;2023-03-21T06:18:58;32.20;;;28.70;;
12871;SDS011;6504;53.766;9.626;2023-03-21T06:21:26;34.30;;;30.10;;
12871;SDS011;6504;53.766;9.626;2023-03-21T06:23:54;32.93;;;29.47;;
12871;SDS011;6504;53.766;9.626;2023-03-21T06:26:24;33.50;;;29.80;;
12871;SDS011;6504;53.766;9.626;2023-03-21T06:28:52;34.87;;;31.17;;
12871;SDS011;6504;53.766;9.626;2023-03-21T06:31:20;34.07;;;30.43;;
12871;SDS011;6504;53.766;9.626;2023-03-21T06:33:50;33.17;;;29.63;;
12871;SDS011;6504;53.766;9.626;2023-03-21T06:36:19;34.03;;;30.37;;
12871;SDS011;6504;53.766;9.626;2023-03-21T06:38:47;33.77;;;29.83;;
12871;SDS011;6504;53.766;9.626;2023-03-21T06:41:15;34.40;;;30.67;;
12871;SDS011;6504;53.766;9.626;2023-03-21T06:43:44;35.60;;;31.77;;
12871;SDS011;6504;53.766;9.626;2023-03-21T06:46:13;34.87;;;31.07;;
12871;SDS011;6504;53.766;9.626;2023-03-21T06:48:41;35.00;;;31.23;;
12871;SDS011;6504;53.766;9.626;2023-03-21T06:51:10;34.33;;;29.87;;
12871;SDS011;6504;53.766;9.626;2023-03-21T06:53:39;34.87;;;31.07;;
12871;SDS011;6504;53.766;9.626;2023-03-21T06:56:07;33.67;;;29.30;;
12871;SDS011;6504;53.766;9.626;2023-03-21T06:58:36;34.73;;;31.03;;
12871;SDS011;6504;53.766;9.626;2023-03-21T07:01:06;37.33;;;32.60;;
12871;SDS011;6504;53.766;9.626;2023-03-21T07:03:35;36.30;;;32.23;;
12871;SDS011;6504;53.766;9.626;2023-03-21T07:06:03;37.03;;;32.67;;
12871;SDS011;6504;53.766;9.626;2023-03-21T07:08:32;35.97;;;32.07;;
12871;SDS011;6504;53.766;9.626;2023-03-21T07:11:00;35.37;;;31.50;;
12871;SDS011;6504;53.766;9.626;2023-03-21T07:13:28;35.60;;;31.67;;
12871;SDS011;6504;53.766;9.626;2023-03-21T07:15:57;36.77;;;32.80;;
12871;SDS011;6504;53.766;9.626;2023-03-21T07:18:27;34.07;;;30.37;;
12871;SDS011;6504;53.766;9.626;2023-03-21T07:20:56;37.40;;;33.30;;
12871;SDS011;6504;53.766;9.626;2023-03-21T07:23:25;38.40;;;33.33;;
12871;SDS011;6504;53.766;9.626;2023-03-21T07:25:54;38.10;;;33.10;;
12871;SDS011;6504;53.766;9.626;2023-03-21T07:28:22;40.30;;;33.07;;
12871;SDS011;6504;53.766;9.626;2023-03-21T07:30:51;45.03;;;35.10;;
12871;SDS011;6504;53.766;9.626;2023-03-21T07:33:21;39.93;;;33.43;;
12871;SDS011;6504;53.766;9.626;2023-03-21T07:35:52;42.73;;;33.83;;
12871;SDS011;6504;53.766;9.626;2023-03-21T07:38:23;42.10;;;34.57;;
12871;SDS011;6504;53.766;9.626;2023-03-21T07:40:52;45.70;;;36.53;;
12871;SDS011;6504;53.766;9.626;2023-03-21T07:43:20;47.67;;;36.40;;
12871;SDS011;6504;53.766;9.626;2023-03-21T07:45:49;47.77;;;36.53;;
12871;SDS011;6504;53.766;9.626;2023-03-21T07:48:17;43.07;;;35.57;;
12871;SDS011;6504;53.766;9.626;2023-03-21T07:50:45;47.67;;;35.97;;
12871;SDS011;6504;53.766;9.626;2023-03-21T07:53:17;50.70;;;37.07;;
12871;SDS011;6504;53.766;9.626;2023-03-21T07:55:48;50.67;;;38.70;;
12871;SDS011;6504;53.766;9.626;2023-03-21T07:58:16;49.77;;;37.30;;
12871;SDS011;6504;53.766;9.626;2023-03-21T08:00:45;55.67;;;39.87;;
12871;SDS011;6504;53.766;9.626;2023-03-21T08:03:13;60.33;;;40.77;;
12871;SDS011;6504;53.766;9.626;2023-03-21T08:05:42;61.13;;;42.57;;
12871;SDS011;6504;53.766;9.626;2023-03-21T08:08:10;59.23;;;40.77;;
12871;SDS011;6504;53.766;9.626;2023-03-21T08:10:42;61.77;;;41.10;;
12871;SDS011;6504;53.766;9.626;2023-03-21T08:13:10;63.70;;;41.27;;
12871;SDS011;6504;53.766;9.626;2023-03-21T08:15:38;68.40;;;42.20;;
12871;SDS011;6504;53.766;9.626;2023-03-21T08:18:08;67.90;;;43.27;;
12871;SDS011;6504;53.766;9.626;2023-03-21T08:20:36;63.47;;;42.27;;
12871;SDS011;6504;53.766;9.626;2023-03-21T08:23:04;62.50;;;42.90;;
12871;SDS011;6504;53.766;9.626;2023-03-21T08:25:32;64.17;;;43.07;;
12871;SDS011;6504;53.766;9.626;2023-03-21T08:28:02;60.60;;;41.33;;
12871;SDS011;6504;53.766;9.626;2023-03-21T08:30:31;71.73;;;43.07;;
12871;SDS011;6504;53.766;9.626;2023-03-21T08:32:59;74.67;;;44.53;;
12871;SDS011;6504;53.766;9.626;2023-03-21T08:35:28;72.17;;;45.93;;
12871;SDS011;6504;53.766;9.626;2023-03-21T08:37:57;76.70;;;44.73;;
12871;SDS011;6504;53.766;9.626;2023-03-21T08:40:26;78.00;;;46.63;;
12871;SDS011;6504;53.766;9.626;2023-03-21T08:42:54;70.97;;;44.93;;
12871;SDS011;6504;53.766;9.626;2023-03-21T08:45:23;72.97;;;44.20;;
12871;SDS011;6504;53.766;9.626;2023-03-21T08:47:52;74.13;;;44.17;;
12871;SDS011;6504;53.766;9.626;2023-03-21T08:50:22;78.63;;;45.77;;
12871;SDS011;6504;53.766;9.626;2023-03-21T08:52:52;70.70;;;44.40;;
12871;SDS011;6504;53.766;9.626;2023-03-21T08:55:20;75.07;;;43.90;;
12871;SDS011;6504;53.766;9.626;2023-03-21T08:57:48;71.30;;;44.10;;
12871;SDS011;6504;53.766;9.626;2023-03-21T09:00:16;68.70;;;43.80;;
12871;SDS011;6504;53.766;9.626;2023-03-21T09:02:47;72.47;;;44.03;;
12871;SDS011;6504;53.766;9.626;2023-03-21T09:05:17;80.03;;;45.27;;
12871;SDS011;6504;53.766;9.626;2023-03-21T09:07:45;78.93;;;45.40;;
12871;SDS011;6504;53.766;9.626;2023-03-21T09:10:15;80.47;;;45.77;;
12871;SDS011;6504;53.766;9.626;2023-03-21T09:12:47;72.67;;;45.47;;
12871;SDS011;6504;53.766;9.626;2023-03-21T09:15:17;69.10;;;45.20;;
12871;SDS011;6504;53.766;9.626;2023-03-21T09:17:48;69.77;;;43.10;;
12871;SDS011;6504;53.766;9.626;2023-03-21T09:20:18;74.73;;;44.47;;
12871;SDS011;6504;53.766;9.626;2023-03-21T09:22:55;71.70;;;44.57;;
12871;SDS011;6504;53.766;9.626;2023-03-21T09:25:25;67.30;;;42.57;;
12871;SDS011;6504;53.766;9.626;2023-03-21T09:27:57;72.23;;;44.43;;
12871;SDS011;6504;53.766;9.626;2023-03-21T09:30:25;72.63;;;43.73;;
12871;SDS011;6504;53.766;9.626;2023-03-21T09:32:55;76.03;;;42.63;;
12871;SDS011;6504;53.766;9.626;2023-03-21T09:35:23;70.53;;;44.10;;
12871;SDS011;6504;53.766;9.626;2023-03-21T09:37:52;64.10;;;43.60;;
12871;SDS011;6504;53.766;9.626;2023-03-21T09:40:37;75.50;;;45.13;;
12871;SDS011;6504;53.766;9.626;2023-03-21T09:43:21;69.83;;;41.73;;
12871;SDS011;6504;53.766;9.626;2023-03-21T09:46:00;65.63;;;42.40;;
12871;SDS011;6504;53.766;9.626;2023-03-21T09:48:43;63.73;;;42.60;;
12871;SDS011;6504;53.766;9.626;2023-03-21T09:51:23;66.47;;;41.60;;
12871;SDS011;6504;53.766;9.626;2023-03-21T09:53:54;65.63;;;41.53;;
12871;SDS011;6504;53.766;9.626;2023-03-21T09:56:23;66.03;;;41.97;;
12871;SDS011;6504;53.766;9.626;2023-03-21T09:58:53;66.13;;;42.20;;
12871;SDS011;6504;53.766;9.626;2023-03-21T10:01:24;62.20;;;40.57;;
12871;SDS011;6504;53.766;9.626;2023-03-21T10:03:56;61.10;;;40.57;;
12871;SDS011;6504;53.766;9.626;2023-03-21T10:06:27;59.07;;;39.37;;
12871;SDS011;6504;53.766;9.626;2023-03-21T10:08:57;60.07;;;38.37;;
12871;SDS011;6504;53.766;9.626;2023-03-21T10:11:35;58.63;;;39.63;;
12871;SDS011;6504;53.766;9.626;2023-03-21T10:14:12;57.67;;;38.63;;
12871;SDS011;6504;53.766;9.626;2023-03-21T10:16:45;49.23;;;36.23;;
12871;SDS011;6504;53.766;9.626;2023-03-21T10:19:17;46.40;;;34.37;;
12871;SDS011;6504;53.766;9.626;2023-03-21T10:21:46;50.10;;;35.73;;
12871;SDS011;6504;53.766;9.626;2023-03-21T10:24:27;42.33;;;32.63;;
12871;SDS011;6504;53.766;9.626;2023-03-21T10:26:57;42.40;;;32.53;;
12871;SDS011;6504;53.766;9.626;2023-03-21T10:29:27;45.93;;;31.73;;
12871;SDS011;6504;53.766;9.626;2023-03-21T10:31:58;41.63;;;30.60;;
12871;SDS011;6504;53.766;9.626;2023-03-21T10:34:29;34.87;;;28.77;;
12871;SDS011;6504;53.766;9.626;2023-03-21T10:37:00;35.53;;;28.43;;
12871;SDS011;6504;53.766;9.626;2023-03-21T10:39:31;38.13;;;29.23;;
12871;SDS011;6504;53.766;9.626;2023-03-21T10:42:01;35.57;;;28.03;;
12871;SDS011;6504;53.766;9.626;2023-03-21T10:44:30;36.43;;;29.73;;
12871;SDS011;6504;53.766;9.626;2023-03-21T10:47:02;32.63;;;28.03;;
12871;SDS011;6504;53.766;9.626;2023-03-21T10:49:33;34.17;;;26.83;;
12871;SDS011;6504;53.766;9.626;2023-03-21T10:52:23;34.00;;;27.17;;
12871;SDS011;6504;53.766;9.626;2023-03-21T10:55:03;28.60;;;25.47;;
12871;SDS011;6504;53.766;9.626;2023-03-21T10:57:34;31.60;;;26.63;;
12871;SDS011;6504;53.766;9.626;2023-03-21T11:00:04;30.80;;;26.03;;
12871;SDS011;6504;53.766;9.626;2023-03-21T11:02:40;28.97;;;24.80;;
12871;SDS011;6504;53.766;9.626;2023-03-21T11:05:16;31.90;;;26.63;;
12871;SDS011;6504;53.766;9.626;2023-03-21T11:07:46;32.40;;;25.70;;
12871;SDS011;6504;53.766;9.626;2023-03-21T11:10:15;31.17;;;26.03;;
12871;SDS011;6504;53.766;9.626;2023-03-21T11:12:55;33.87;;;27.77;;
12871;SDS011;6504;53.766;9.626;2023-03-21T11:15:25;33.43;;;26.53;;
12871;SDS011;6504;53.766;9.626;2023-03-21T11:17:56;30.50;;;25.80;;
12871;SDS011;6504;53.766;9.626;2023-03-21T11:20:27;32.73;;;26.57;;
12871;SDS011;6504;53.766;9.626;2023-03-21T11:22:57;33.43;;;26.50;;
12871;SDS011;6504;53.766;9.626;2023-03-21T11:25:30;32.03;;;26.13;;
12871;SDS011;6504;53.766;9.626;2023-03-21T11:28:04;30.97;;;25.83;;
12871;SDS011;6504;53.766;9.626;2023-03-21T11:30:34;30.43;;;25.83;;
12871;SDS011;6504;53.766;9.626;2023-03-21T11:33:03;30.60;;;24.83;;
12871;SDS011;6504;53.766;9.626;2023-03-21T11:35:35;29.67;;;26.00;;
12871;SDS011;6504;53.766;9.626;2023-03-21T11:38:04;29.17;;;24.50;;
12871;SDS011;6504;53.766;9.626;2023-03-21T11:40:51;29.93;;;25.53;;
12871;SDS011;6504;53.766;9.626;2023-03-21T11:43:28;30.03;;;24.90;;
12871;SDS011;6504;53.766;9.626;2023-03-21T11:45:59;31.60;;;25.03;;
12871;SDS011;6504;53.766;9.626;2023-03-21T11:48:32;29.17;;;24.77;;
12871;SDS011;6504;53.766;9.626;2023-03-21T11:51:09;29.60;;;24.00;;
12871;SDS011;6504;53.766;9.626;2023-03-21T11:53:45;30.23;;;23.80;;
12871;SDS011;6504;53.766;9.626;2023-03-21T11:56:19;28.23;;;22.67;;
12871;SDS011;6504;53.766;9.626;2023-03-21T11:58:55;24.33;;;21.73;;
12871;SDS011;6504;53.766;9.626;2023-03-21T12:01:50;26.80;;;22.43;;
12871;SDS011;6504;53.766;9.626;2023-03-21T12:04:28;22.97;;;19.73;;
12871;SDS011;6504;53.766;9.626;2023-03-21T12:07:17;23.63;;;19.77;;
12871;SDS011;6504;53.766;9.626;2023-03-21T12:09:54;23.33;;;19.73;;
12871;SDS011;6504;53.766;9.626;2023-03-21T12:12:32;21.37;;;19.13;;
12871;SDS011;6504;53.766;9.626;2023-03-21T12:15:09;21.20;;;18.97;;
12871;SDS011;6504;53.766;9.626;2023-03-21T12:17:46;22.17;;;19.40;;
12871;SDS011;6504;53.766;9.626;2023-03-21T12:20:25;20.27;;;18.07;;
12871;SDS011;6504;53.766;9.626;2023-03-21T12:23:10;21.70;;;18.70;;
12871;SDS011;6504;53.766;9.626;2023-03-21T12:25:46;21.37;;;18.30;;
12871;SDS011;6504;53.766;9.626;2023-03-21T12:28:24;21.80;;;19.40;;
12871;SDS011;6504;53.766;9.626;2023-03-21T12:31:00;23.30;;;20.10;;
12871;SDS011;6504;53.766;9.626;2023-03-21T12:33:39;22.57;;;20.07;;
12871;SDS011;6504;53.766;9.626;2023-03-21T12:36:17;24.13;;;19.07;;
12871;SDS011;6504;53.766;9.626;2023-03-21T12:39:10;21.43;;;18.37;;
12871;SDS011;6504;53.766;9.626;2023-03-21T12:41:49;19.70;;;16.70;;
12871;SDS011;6504;53.766;9.626;2023-03-21T12:44:28;16.73;;;15.07;;
12871;SDS011;6504;53.766;9.626;2023-03-21T12:47:00;16.83;;;15.13;;
12871;SDS011;6504;53.766;9.626;2023-03-21T12:49:34;16.67;;;14.97;;
12871;SDS011;6504;53.766;9.626;2023-03-21T12:52:06;16.90;;;15.10;;
12871;SDS011;6504;53.766;9.626;2023-03-21T12:54:40;16.67;;;14.87;;
12871;SDS011;6504;53.766;9.626;2023-03-21T12:57:11;15.67;;;14.10;;
12871;SDS011;6504;53.766;9.626;2023-03-21T12:59:45;14.90;;;13.40;;
12871;SDS011;6504;53.766;9.626;2023-03-21T13:02:21;15.73;;;14.10;;
12871;SDS011;6504;53.766;9.626;2023-03-21T13:04:55;14.33;;;12.90;;
12871;SDS011;6504;53.766;9.626;2023-03-21T13:07:28;14.77;;;13.27;;
12871;SDS011;6504;53.766;9.626;2023-03-21T13:10:01;14.77;;;13.37;;
12871;SDS011;6504;53.766;9.626;2023-03-21T13:12:43;14.50;;;13.00;;
12871;SDS011;6504;53.766;9.626;2023-03-21T13:15:28;14.63;;;13.00;;
12871;SDS011;6504;53.766;9.626;2023-03-21T13:18:28;14.43;;;13.03;;
12871;SDS011;6504;53.766;9.626;2023-03-21T13:21:07;14.83;;;11.93;;
12871;SDS011;6504;53.766;9.626;2023-03-21T13:23:45;13.23;;;11.93;;
12871;SDS011;6504;53.766;9.626;2023-03-21T13:26:32;13.77;;;12.30;;
12871;SDS011;6504;53.766;9.626;2023-03-21T13:29:11;12.83;;;11.53;;
12871;SDS011;6504;53.766;9.626;2023-03-21T13:31:43;11.73;;;10.57;;
12871;SDS011;6504;53.766;9.626;2023-03-21T13:34:19;13.43;;;12.13;;
12871;SDS011;6504;53.766;9.626;2023-03-21T13:36:49;12.77;;;11.53;;
12871;SDS011;6504;53.766;9.626;2023-03-21T13:39:19;11.90;;;10.70;;
12871;SDS011;6504;53.766;9.626;2023-03-21T13:41:52;13.60;;;11.70;;
12871;SDS011;6504;53.766;9.626;2023-03-21T13:44:30;12.87;;;11.57;;
12871;SDS011;6504;53.766;9.626;2023-03-21T13:47:03;12.47;;;11.20;;
12871;SDS011;6504;53.766;9.626;2023-03-21T13:49:33;12.17;;;11.03;;
12871;SDS011;6504;53.766;9.626;2023-03-21T13:52:20;13.07;;;11.70;;
12871;SDS011;6504;53.766;9.626;2023-03-21T13:54:53;11.60;;;10.57;;
12871;SDS011;6504;53.766;9.626;2023-03-21T13:57:35;12.83;;;11.30;;
12871;SDS011;6504;53.766;9.626;2023-03-21T14:00:15;13.43;;;12.17;;
12871;SDS011;6504;53.766;9.626;2023-03-21T14:02:51;12.53;;;11.33;;
12871;SDS011;6504;53.766;9.626;2023-03-21T14:05:21;14.10;;;12.70;;
12871;SDS011;6504;53.766;9.626;2023-03-21T14:07:52;14.00;;;12.70;;
12871;SDS011;6504;53.766;9.626;2023-03-21T14:10:36;14.27;;;12.87;;
12871;SDS011;6504;53.766;9.626;2023-03-21T14:13:08;15.13;;;13.53;;
12871;SDS011;6504;53.766;9.626;2023-03-21T14:15:42;16.00;;;14.30;;
12871;SDS011;6504;53.766;9.626;2023-03-21T14:18:21;16.03;;;14.43;;
12871;SDS011;6504;53.766;9.626;2023-03-21T14:21:19;15.03;;;13.73;;
12871;SDS011;6504;53.766;9.626;2023-03-21T14:23:57;15.03;;;13.53;;
12871;SDS011;6504;53.766;9.626;2023-03-21T14:26:26;15.90;;;14.13;;
12871;SDS011;6504;53.766;9.626;2023-03-21T14:28:59;15.90;;;14.27;;
12871;SDS011;6504;53.766;9.626;2023-03-21T14:31:32;15.37;;;13.87;;
12871;SDS011;6504;53.766;9.626;2023-03-21T14:34:01;15.80;;;14.20;;
12871;SDS011;6504;53.766;9.626;2023-03-21T14:36:31;15.90;;;14.40;;
12871;SDS011;6504;53.766;9.626;2023-03-21T14:39:02;16.00;;;14.50;;
12871;SDS011;6504;53.766;9.626;2023-03-21T14:41:33;17.57;;;15.83;;
12871;SDS011;6504;53.766;9.626;2023-03-21T14:44:15;17.53;;;15.67;;
12871;SDS011;6504;53.766;9.626;2023-03-21T14:46:51;17.80;;;15.97;;
12871;SDS011;6504;53.766;9.626;2023-03-21T14:49:21;17.50;;;15.80;;
12871;SDS011;6504;53.766;9.626;2023-03-21T14:51:53;18.20;;;16.40;;
12871;SDS011;6504;53.766;9.626;2023-03-21T14:54:22;18.47;;;16.63;;
12871;SDS011;6504;53.766;9.626;2023-03-21T14:56:53;18.53;;;16.80;;
12871;SDS011;6504;53.766;9.626;2023-03-21T14:59:28;18.33;;;16.47;;
12871;SDS011;6504;53.766;9.626;2023-03-21T15:02:00;20.23;;;18.13;;
12871;SDS011;6504;53.766;9.626;2023-03-21T15:04:31;19.80;;;17.67;;
12871;SDS011;6504;53.766;9.626;2023-03-21T15:07:00;20.37;;;18.23;;